Time;durP1;ratioP1;P1;durP2;ratioP2;P2;SDS_P1;SDS_P2;PMS_P1;PMS_P2;Temp;Humidity;BMP_temperature;BMP_pressure;BME280_temperature;BME280_humidity;BME280_pressure;Samples;Min_cycle;Max_cycle;Signal;HPM_P1;HPM_P2
2022/07/23 00:01:14;;;;;;;;;;;;;;;-140.72;100.00;52506.53;5092408;28;19965;-65
2022/07/23 00:03:39;;;;;;;;;;;;;;;-140.72;100.00;52506.53;5093367;28;20049;-65
2022/07/23 00:06:04;;;;;;;;;;;;;;;-140.72;100.00;52508.56;5092203;28;19916;-65
2022/07/23 00:08:29;;;;;;;;;;;;;;;-140.72;100.00;52504.50;5093643;28;19916;-65
2022/07/23 00:10:55;;;;;;;;;;;;;;;-140.72;100.00;52478.13;5085723;28;19989;-65
2022/07/23 00:13:20;;;;;;;;;;;;;;;-140.72;100.00;52541.03;5093544;28;19916;-64
2022/07/23 00:15:45;;;;;;;;;;;;;;;-140.72;100.00;52512.59;5098770;28;19973;-65
2022/07/23 00:18:10;;;;;;;;;;;;;;;-140.72;100.00;52545.06;5095031;28;19916;-65
2022/07/23 00:20:35;;;;;;;;;;;;;;;-140.72;100.00;52520.72;5095025;28;19954;-65
2022/07/23 00:23:01;;;;;;;;;;;;;;;-140.72;100.00;52557.25;5094323;28;19916;-65
2022/07/23 00:25:26;;;;;;;;;;;;;;;-140.72;100.00;52510.59;5091892;28;19932;-65
2022/07/23 00:27:51;;;;;;;;;;;;;;;-140.72;100.00;52508.56;5094423;28;20007;-65
2022/07/23 00:30:16;;;;;;;;;;;;;;;-140.72;100.00;52569.44;5097034;28;20274;-65
2022/07/23 00:32:49;;;;;;;;;;;;;;;-140.72;100.00;52557.25;5091411;28;20400;-65
2022/07/23 00:35:14;;;;;;;;;;;;;;;-140.72;100.00;52530.88;5091212;28;19924;-65
2022/07/23 00:37:39;;;;;;;;;;;;;;;-140.72;100.00;52528.84;5091486;28;19981;-65
2022/07/23 00:40:05;;;;;;;;;;;;;;;-140.72;100.00;52555.22;5090908;28;19916;-65
2022/07/23 00:42:31;;;;;;;;;;;;;;;-140.72;100.00;52524.78;5093229;28;19916;-65
2022/07/23 00:44:56;;;;;;;;;;;;;;;-140.72;100.00;52536.97;5093346;28;19927;-65
2022/07/23 00:47:21;;;;;;;;;;;;;;;-140.72;100.00;52539.00;5093840;28;19920;-65
2022/07/23 00:49:46;;;;;;;;;;;;;;;-140.72;100.00;52545.06;5091263;28;20306;-65
2022/07/23 00:52:12;;;;;;;;;;;;;;;-140.72;100.00;52541.03;5091903;28;19916;-66
2022/07/23 00:54:37;;;;;;;;;;;;;;;-140.72;100.00;52543.03;5092396;28;19923;-65
2022/07/23 00:57:02;;;;;;;;;;;;;;;-140.72;100.00;52528.84;5092313;28;19966;-65
2022/07/23 00:59:28;;;;;;;;;;;;;;;-140.72;100.00;52534.94;5097270;28;19916;-66
2022/07/23 01:01:53;;;;;;;;;;;;;;;-140.72;100.00;52549.13;5096415;28;19916;-65
2022/07/23 01:04:18;;;;;;;;;;;;;;;-140.72;100.00;52532.91;5100475;28;19916;-66
2022/07/23 01:06:44;;;;;;;;;;;;;;;-140.72;100.00;52534.94;5105782;28;20275;-66
2022/07/23 01:09:10;;;;;;;;;;;;;;;-140.72;100.00;52555.22;5097025;28;19916;-65
2022/07/23 01:11:36;;;;;;;;;;;;;;;-140.72;100.00;52541.03;5095489;28;19969;-65
2022/07/23 01:14:15;;;;;;;;;;;;;;;-140.72;100.00;52543.03;5096088;28;20350;-65
2022/07/23 01:16:41;;;;;;;;;;;;;;;-140.72;100.00;52583.63;5101041;28;20113;-65
2022/07/23 01:19:06;;;;;;;;;;;;;;;-140.72;100.00;52539.00;5100169;28;20436;-65
2022/07/23 01:21:34;;;;;;;;;;;;;;;-140.72;100.00;52547.09;5096342;28;20006;-65
2022/07/23 01:23:59;;;;;;;;;;;;;;;-140.72;100.00;52557.25;5094046;28;19916;-66
2022/07/23 01:26:25;;;;;;;;;;;;;;;-140.72;100.00;52539.00;5099882;28;20390;-66
2022/07/23 01:28:50;;;;;;;;;;;;;;;-140.72;100.00;52530.88;5095397;28;19923;-65
2022/07/23 01:31:15;;;;;;;;;;;;;;;-140.72;100.00;52559.28;5088073;28;20269;-65
2022/07/23 01:33:40;;;;;;;;;;;;;;;-140.72;100.00;52581.59;5079265;28;20393;-66
2022/07/23 01:36:06;;;;;;;;;;;;;;;-140.72;100.00;52553.19;5108398;28;19977;-65
2022/07/23 01:38:31;;;;;;;;;;;;;;;-140.72;100.00;52549.13;5090899;28;19922;-66
2022/07/23 01:40:56;;;;;;;;;;;;;;;-140.72;100.00;52591.75;5094317;28;19943;-65
2022/07/23 01:43:22;;;;;;;;;;;;;;;-140.72;100.00;52565.38;5083251;28;19917;-65
2022/07/23 01:45:47;;;;;;;;;;;;;;;-140.72;100.00;52597.84;5106312;28;19916;-65
2022/07/23 01:48:12;;;;;;;;;;;;;;;-140.72;100.00;52547.09;5107211;28;19942;-65
2022/07/23 01:50:37;;;;;;;;;;;;;;;-140.72;100.00;52573.50;5095872;28;19916;-66
2022/07/23 01:53:03;;;;;;;;;;;;;;;-140.72;100.00;52583.63;5094706;28;19958;-65
2022/07/23 01:55:28;;;;;;;;;;;;;;;-140.72;100.00;52575.50;5087626;28;19959;-66
2022/07/23 01:57:53;;;;;;;;;;;;;;;-140.72;100.00;52597.84;5092382;28;19917;-66
2022/07/23 02:00:18;;;;;;;;;;;;;;;-140.72;100.00;52569.44;5104209;28;19916;-66
2022/07/23 02:02:44;;;;;;;;;;;;;;;-140.72;100.00;52585.66;5090860;28;19924;-66
2022/07/23 02:05:09;;;;;;;;;;;;;;;-140.72;100.00;52565.38;5104012;28;19916;-66
2022/07/23 02:07:34;;;;;;;;;;;;;;;-140.72;100.00;52581.59;5090551;28;20426;-66
2022/07/23 02:09:59;;;;;;;;;;;;;;;-140.72;100.00;52557.25;5094606;28;20324;-65
2022/07/23 02:12:24;;;;;;;;;;;;;;;-140.72;100.00;52553.19;5096627;28;19923;-65
2022/07/23 02:14:50;;;;;;;;;;;;;;;-140.72;100.00;52526.81;5097196;28;19948;-65
2022/07/23 02:17:15;;;;;;;;;;;;;;;-140.72;100.00;52569.44;5102687;28;20006;-66
2022/07/23 02:19:40;;;;;;;;;;;;;;;-140.72;100.00;52577.53;5079859;28;20015;-66
2022/07/23 02:22:05;;;;;;;;;;;;;;;-140.72;100.00;52597.84;5092755;28;20354;-65
2022/07/23 02:24:31;;;;;;;;;;;;;;;-140.72;100.00;52563.34;5107430;28;19917;-66
2022/07/23 02:26:56;;;;;;;;;;;;;;;-140.72;100.00;52597.84;5095379;28;20397;-65
2022/07/23 02:29:21;;;;;;;;;;;;;;;-140.72;100.00;52605.94;5082700;28;19947;-65
2022/07/23 02:31:46;;;;;;;;;;;;;;;-140.72;100.00;52549.13;5083326;28;20000;-65
2022/07/23 02:34:12;;;;;;;;;;;;;;;-140.72;100.00;52595.81;5086693;22;20057;-65
2022/07/23 02:36:38;;;;;;;;;;;;;;;-140.72;100.00;52593.78;5058735;28;19943;-65
2022/07/23 02:39:03;;;;;;;;;;;;;;;-140.72;100.00;52587.69;5063481;28;19924;-64
2022/07/23 02:41:28;;;;;;;;;;;;;;;-140.72;100.00;52610.00;5072002;28;20339;-63
2022/07/23 02:43:54;;;;;;;;;;;;;;;-140.72;100.00;52559.28;5076574;28;20430;-64
2022/07/23 02:46:19;;;;;;;;;;;;;;;-140.72;100.00;52577.53;5077252;28;19999;-63
2022/07/23 02:48:44;;;;;;;;;;;;;;;-140.72;100.00;52587.69;5069975;28;20346;-66
2022/07/23 02:51:09;;;;;;;;;;;;;;;-140.72;100.00;52591.75;5088994;28;19916;-65
2022/07/23 02:53:35;;;;;;;;;;;;;;;-140.72;100.00;52601.91;5067233;28;19921;-63
2022/07/23 02:56:00;;;;;;;;;;;;;;;-140.72;100.00;52577.53;5077860;28;19927;-64
2022/07/23 02:58:26;;;;;;;;;;;;;;;-140.72;100.00;52583.63;5060545;28;19924;-64
2022/07/23 03:00:52;;;;;;;;;;;;;;;-140.72;100.00;52589.72;5084520;28;20386;-63
2022/07/23 03:03:17;;;;;;;;;;;;;;;-140.72;100.00;52549.13;5071157;28;20004;-65
2022/07/23 03:05:42;;;;;;;;;;;;;;;-140.72;100.00;52607.97;5073497;28;20017;-65
2022/07/23 03:08:07;;;;;;;;;;;;;;;-140.72;100.00;52601.91;5089965;28;20414;-63
2022/07/23 03:10:32;;;;;;;;;;;;;;;-140.72;100.00;52575.50;5079518;28;20352;-64
2022/07/23 03:12:58;;;;;;;;;;;;;;;-140.72;100.00;52605.94;5090035;28;19927;-65
2022/07/23 03:15:23;;;;;;;;;;;;;;;-140.72;100.00;52589.72;5076206;28;19917;-64
2022/07/23 03:17:48;;;;;;;;;;;;;;;-140.72;100.00;52622.19;5066813;28;19917;-63
2022/07/23 03:20:13;;;;;;;;;;;;;;;-140.72;100.00;52620.16;5078191;28;19924;-64
2022/07/23 03:22:38;;;;;;;;;;;;;;;-140.72;100.00;52597.84;5079474;28;19917;-65
2022/07/23 03:25:04;;;;;;;;;;;;;;;-140.72;100.00;52573.50;5045768;28;19917;-63
2022/07/23 03:27:29;;;;;;;;;;;;;;;-140.72;100.00;52603.94;5071324;28;19978;-64
2022/07/23 03:29:55;;;;;;;;;;;;;;;-140.72;100.00;52603.94;5067072;28;20374;-63
2022/07/23 03:32:21;;;;;;;;;;;;;;;-140.72;100.00;52573.50;5061838;28;19916;-65
2022/07/23 03:34:46;;;;;;;;;;;;;;;-140.72;100.00;52597.84;5058386;28;19985;-63
2022/07/23 03:37:11;;;;;;;;;;;;;;;-140.72;100.00;52605.94;5058329;28;19916;-64
2022/07/23 03:39:37;;;;;;;;;;;;;;;-140.72;100.00;52618.13;5053512;28;20394;-64
2022/07/23 03:42:02;;;;;;;;;;;;;;;-140.72;100.00;52601.91;5077843;28;19995;-63
2022/07/23 03:44:27;;;;;;;;;;;;;;;-140.72;100.00;52587.69;5077482;28;19971;-64
2022/07/23 03:46:53;;;;;;;;;;;;;;;-140.72;100.00;52597.84;5078086;28;20343;-64
2022/07/23 03:49:18;;;;;;;;;;;;;;;-140.72;100.00;52569.44;5077882;28;19923;-65
2022/07/23 03:51:43;;;;;;;;;;;;;;;-140.72;100.00;52575.50;5065736;28;19916;-64
2022/07/23 03:54:09;;;;;;;;;;;;;;;-140.72;100.00;52591.75;5077840;28;19928;-64
2022/07/23 03:56:34;;;;;;;;;;;;;;;-140.72;100.00;52620.16;5076812;28;19925;-65
2022/07/23 03:58:59;;;;;;;;;;;;;;;-140.72;100.00;52605.94;5065369;28;19923;-65
2022/07/23 04:01:24;;;;;;;;;;;;;;;-140.72;100.00;52559.28;5077442;28;19947;-65
2022/07/23 04:03:49;;;;;;;;;;;;;;;-140.72;100.00;52618.13;5058710;28;19931;-63
2022/07/23 04:06:15;;;;;;;;;;;;;;;-140.72;100.00;52593.78;5077236;28;19921;-65
2022/07/23 04:08:40;;;;;;;;;;;;;;;-140.72;100.00;52614.06;5070832;28;19936;-64
2022/07/23 04:11:05;;;;;;;;;;;;;;;-140.72;100.00;52583.63;5060221;28;19916;-63
2022/07/23 04:13:32;;;;;;;;;;;;;;;-140.72;100.00;52599.88;5071532;28;20035;-63
2022/07/23 04:15:57;;;;;;;;;;;;;;;-140.72;100.00;52569.44;5072197;28;19916;-64
2022/07/23 04:18:23;;;;;;;;;;;;;;;-140.72;100.00;52551.16;5064499;28;20284;-64
2022/07/23 04:20:50;;;;;;;;;;;;;;;-140.72;100.00;52567.41;5076594;28;19920;-65
2022/07/23 04:23:15;;;;;;;;;;;;;;;-140.72;100.00;52612.03;5047542;28;20252;-64
2022/07/23 04:25:40;;;;;;;;;;;;;;;-140.72;100.00;52587.69;5076915;28;19927;-63
2022/07/23 04:28:06;;;;;;;;;;;;;;;-140.72;100.00;52587.69;5070089;28;19917;-64
2022/07/23 04:30:31;;;;;;;;;;;;;;;-140.72;100.00;52593.78;5072547;28;19917;-64
2022/07/23 04:32:56;;;;;;;;;;;;;;;-140.72;100.00;52610.00;5079057;28;19920;-63
2022/07/23 04:35:21;;;;;;;;;;;;;;;-140.72;100.00;52593.78;5079583;28;20281;-63
2022/07/23 04:37:47;;;;;;;;;;;;;;;-140.72;100.00;52603.94;5062340;28;20003;-64
2022/07/23 04:40:13;;;;;;;;;;;;;;;-140.72;100.00;52593.78;5079194;28;20429;-64
2022/07/23 04:42:38;;;;;;;;;;;;;;;-140.72;100.00;52577.53;5081883;28;20356;-64
2022/07/23 04:45:04;;;;;;;;;;;;;;;-140.72;100.00;52557.25;5080834;28;19962;-64
2022/07/23 04:47:29;;;;;;;;;;;;;;;-140.72;100.00;52555.22;5080219;28;19962;-64
2022/07/23 04:49:54;;;;;;;;;;;;;;;-140.72;100.00;52585.66;5067684;28;19920;-64
2022/07/23 04:52:20;;;;;;;;;;;;;;;-140.72;100.00;52581.59;5081433;28;19924;-64
2022/07/23 04:54:45;;;;;;;;;;;;;;;-140.72;100.00;52569.44;5048828;28;19920;-64
2022/07/23 04:57:10;;;;;;;;;;;;;;;-140.72;100.00;52587.69;5067699;28;19917;-65
2022/07/23 04:59:35;;;;;;;;;;;;;;;-140.72;100.00;52565.38;5080781;28;20019;-64
2022/07/23 05:02:00;;;;;;;;;;;;;;;-140.72;100.00;52557.25;5081364;28;19964;-63
2022/07/23 05:04:26;;;;;;;;;;;;;;;-140.72;100.00;52553.19;5068187;28;19928;-64
2022/07/23 05:06:51;;;;;;;;;;;;;;;-140.72;100.00;52605.94;5061292;28;20028;-64
2022/07/23 05:09:16;;;;;;;;;;;;;;;-140.72;100.00;52593.78;5073938;28;19923;-64
2022/07/23 05:11:41;;;;;;;;;;;;;;;-140.72;100.00;52581.59;5068068;28;19926;-64
2022/07/23 05:14:06;;;;;;;;;;;;;;;-140.72;100.00;52561.31;5080967;28;19956;-64
2022/07/23 05:16:32;;;;;;;;;;;;;;;-140.72;100.00;52557.25;5074422;28;20014;-64
2022/07/23 05:18:57;;;;;;;;;;;;;;;-140.72;100.00;52561.31;5074598;28;19924;-64
2022/07/23 05:21:22;;;;;;;;;;;;;;;-140.72;100.00;52543.03;5068260;28;19916;-65
2022/07/23 05:23:47;;;;;;;;;;;;;;;-140.72;100.00;52585.66;5067637;28;19979;-64
2022/07/23 05:26:13;;;;;;;;;;;;;;;-140.72;100.00;52549.13;5080606;28;19951;-65
2022/07/23 05:28:38;;;;;;;;;;;;;;;-140.72;100.00;52536.97;5080736;28;19924;-64
2022/07/23 05:31:03;;;;;;;;;;;;;;;-140.72;100.00;52528.84;5080783;28;19923;-64
2022/07/23 05:33:30;;;;;;;;;;;;;;;-140.72;100.00;52532.91;5066852;28;19979;-64
2022/07/23 05:35:59;;;;;;;;;;;;;;;-140.72;100.00;52504.50;5083527;28;20003;-64
2022/07/23 05:38:24;;;;;;;;;;;;;;;-140.72;100.00;52543.03;5059183;28;20283;-64
2022/07/23 05:40:49;;;;;;;;;;;;;;;-140.72;100.00;52551.16;5070262;28;19917;-65
2022/07/23 05:43:15;;;;;;;;;;;;;;;-140.72;100.00;52532.91;5078952;28;19920;-65
2022/07/23 05:45:40;;;;;;;;;;;;;;;-140.72;100.00;52559.28;5062449;28;19944;-63
2022/07/23 05:48:05;;;;;;;;;;;;;;;-140.72;100.00;52534.94;5058225;28;19921;-64
2022/07/23 05:50:30;;;;;;;;;;;;;;;-140.72;100.00;52563.34;5060431;28;20007;-64
2022/07/23 05:52:56;;;;;;;;;;;;;;;-140.72;100.00;52528.84;5077232;28;20015;-64
2022/07/23 05:55:21;;;;;;;;;;;;;;;-140.72;100.00;52536.97;5062475;28;19928;-64
2022/07/23 05:57:46;;;;;;;;;;;;;;;-140.72;100.00;52516.66;5061876;28;20279;-65
2022/07/23 06:00:12;;;;;;;;;;;;;;;-140.72;100.00;52506.53;5080197;28;19917;-64
2022/07/23 06:02:37;;;;;;;;;;;;;;;-140.72;100.00;52530.88;5080145;28;19917;-66
2022/07/23 06:05:03;;;;;;;;;;;;;;;-140.72;100.00;52545.06;5066901;28;19970;-64
2022/07/23 06:07:28;;;;;;;;;;;;;;;-140.72;100.00;52520.72;5079536;28;19942;-64
2022/07/23 06:09:53;;;;;;;;;;;;;;;-140.72;100.00;52530.88;5079606;28;19916;-63
2022/07/23 06:12:18;;;;;;;;;;;;;;;-140.72;100.00;52504.50;5069500;28;19981;-64
2022/07/23 06:14:44;;;;;;;;;;;;;;;-140.72;100.00;52502.47;5060359;28;20274;-64
2022/07/23 06:17:09;;;;;;;;;;;;;;;-140.72;100.00;52478.13;5070863;28;19917;-64
2022/07/23 06:19:34;;;;;;;;;;;;;;;-140.72;100.00;52512.59;5078009;28;19942;-64
2022/07/23 06:21:59;;;;;;;;;;;;;;;-140.72;100.00;52496.38;5069777;28;19917;-64
2022/07/23 06:24:25;;;;;;;;;;;;;;;-140.72;100.00;52494.34;5054197;28;20007;-64
2022/07/23 06:26:50;;;;;;;;;;;;;;;-140.72;100.00;52443.63;5059946;28;19931;-63
2022/07/23 06:29:15;;;;;;;;;;;;;;;-140.72;100.00;52490.28;5045331;28;20055;-63
2022/07/23 06:31:40;;;;;;;;;;;;;;;-140.72;100.00;52465.94;5052873;28;19916;-64
2022/07/23 06:34:06;;;;;;;;;;;;;;;-140.72;100.00;52474.06;5057638;28;19932;-64
2022/07/23 06:36:31;;;;;;;;;;;;;;;-140.72;100.00;52465.94;5043566;28;19957;-64
2022/07/23 06:38:56;;;;;;;;;;;;;;;-140.72;100.00;52467.97;5068926;28;19916;-65
2022/07/23 06:41:22;;;;;;;;;;;;;;;-140.72;100.00;52480.16;5067085;28;19952;-63
2022/07/23 06:43:47;;;;;;;;;;;;;;;-140.72;100.00;52504.50;5080046;28;19999;-63
2022/07/23 06:46:12;;;;;;;;;;;;;;;-140.72;100.00;52455.78;5079883;28;19963;-64
2022/07/23 06:48:38;;;;;;;;;;;;;;;-140.72;100.00;52492.31;5080117;28;20013;-64
2022/07/23 06:51:03;;;;;;;;;;;;;;;-140.72;100.00;52417.25;5061311;28;19917;-64
2022/07/23 06:53:28;;;;;;;;;;;;;;;-140.72;100.00;52425.34;5078824;28;19966;-65
2022/07/23 06:55:54;;;;;;;;;;;;;;;-140.72;100.00;52449.72;5078077;28;19970;-64
2022/07/23 06:58:20;;;;;;;;;;;;;;;-140.72;100.00;52423.31;5079089;28;19999;-64
2022/07/23 07:00:45;;;;;;;;;;;;;;;-140.72;100.00;52484.19;5080175;28;20007;-63
2022/07/23 07:03:10;;;;;;;;;;;;;;;-140.72;100.00;52429.41;5079261;28;19959;-63
2022/07/23 07:05:36;;;;;;;;;;;;;;;-140.72;100.00;52457.81;5080377;28;19984;-64
2022/07/23 07:08:01;;;;;;;;;;;;;;;-140.72;100.00;52429.41;5076973;28;19923;-64
2022/07/23 07:10:26;;;;;;;;;;;;;;;-140.72;100.00;52453.75;5069362;28;19923;-64
2022/07/23 07:12:51;;;;;;;;;;;;;;;-140.72;100.00;52421.28;5078906;28;19976;-64
2022/07/23 07:15:16;;;;;;;;;;;;;;;-140.72;100.00;52409.13;5079236;28;19940;-64
2022/07/23 07:17:42;;;;;;;;;;;;;;;-140.72;100.00;52392.88;5061380;28;19963;-64
2022/07/23 07:20:07;;;;;;;;;;;;;;;-140.72;100.00;52388.84;5080565;28;19920;-65
2022/07/23 07:22:33;;;;;;;;;;;;;;;-140.72;100.00;52378.69;5061433;28;19931;-64
2022/07/23 07:24:58;;;;;;;;;;;;;;;-140.72;100.00;52392.88;5080110;28;20091;-64
2022/07/23 07:27:23;;;;;;;;;;;;;;;-140.72;100.00;52358.41;5076734;28;19924;-65
2022/07/23 07:29:48;;;;;;;;;;;;;;;-140.72;100.00;52386.81;5077990;28;20370;-64
2022/07/23 07:32:13;;;;;;;;;;;;;;;-140.72;100.00;52409.13;5065871;28;20009;-64
2022/07/23 07:34:39;;;;;;;;;;;;;;;-140.72;100.00;52364.47;5066834;28;19936;-64
2022/07/23 07:37:04;;;;;;;;;;;;;;;-140.72;100.00;52382.75;5075490;28;19920;-64
2022/07/23 07:39:29;;;;;;;;;;;;;;;-140.72;100.00;52382.75;5069591;28;19928;-64
2022/07/23 07:41:54;;;;;;;;;;;;;;;-140.72;100.00;52372.59;5068349;28;19921;-65
2022/07/23 07:44:20;;;;;;;;;;;;;;;-140.72;100.00;52398.97;5079837;28;19959;-63
2022/07/23 07:46:45;;;;;;;;;;;;;;;-140.72;100.00;52394.91;5065111;28;20017;-64
2022/07/23 07:49:10;;;;;;;;;;;;;;;-140.72;100.00;52356.38;5061082;28;19917;-64
2022/07/23 07:51:35;;;;;;;;;;;;;;;-140.72;100.00;52350.28;5067700;28;20289;-64
2022/07/23 07:54:01;;;;;;;;;;;;;;;-140.72;100.00;52370.56;5079933;28;20385;-64
2022/07/23 07:56:26;;;;;;;;;;;;;;;-140.72;100.00;52358.41;5075227;28;19952;-64
2022/07/23 07:58:51;;;;;;;;;;;;;;;-140.72;100.00;52374.63;5060567;28;19943;-64
2022/07/23 08:01:17;;;;;;;;;;;;;;;-140.72;100.00;52352.31;5072628;28;19962;-64
2022/07/23 08:03:42;;;;;;;;;;;;;;;-140.72;100.00;52313.75;5073354;28;19960;-64
2022/07/23 08:06:07;;;;;;;;;;;;;;;-140.72;100.00;52336.06;5054284;28;20360;-64
2022/07/23 08:08:33;;;;;;;;;;;;;;;-140.72;100.00;52334.03;5072001;28;19920;-64
2022/07/23 08:10:58;;;;;;;;;;;;;;;-140.72;100.00;52332.03;5072817;28;19939;-64
2022/07/23 08:13:23;;;;;;;;;;;;;;;-140.72;100.00;52356.38;5059388;28;19982;-64
2022/07/23 08:15:48;;;;;;;;;;;;;;;-140.72;100.00;52311.72;5053959;28;19974;-64
2022/07/23 08:18:14;;;;;;;;;;;;;;;-140.72;100.00;52336.06;5071579;28;19923;-64
2022/07/23 08:20:39;;;;;;;;;;;;;;;-140.72;100.00;52317.81;5071840;28;19916;-64
2022/07/23 08:23:05;;;;;;;;;;;;;;;-140.72;100.00;52315.78;5071492;28;20005;-64
2022/07/23 08:25:32;;;;;;;;;;;;;;;-140.72;100.00;52293.47;5078204;28;19920;-65
2022/07/23 08:27:58;;;;;;;;;;;;;;;-140.72;100.00;52277.22;5078388;28;19916;-64
2022/07/23 08:30:24;;;;;;;;;;;;;;;-140.72;100.00;52279.25;5052692;28;19965;-64
2022/07/23 08:32:52;;;;;;;;;;;;;;;-140.72;100.00;52283.31;5071354;28;19979;-65
2022/07/23 08:35:21;;;;;;;;;;;;;;;-140.72;100.00;52261.00;5063098;28;19917;-65
2022/07/23 08:37:46;;;;;;;;;;;;;;;-140.72;100.00;52242.75;5066048;28;19917;-64
2022/07/23 08:40:12;;;;;;;;;;;;;;;-140.72;100.00;52230.56;5058622;28;19917;-65
2022/07/23 08:42:38;;;;;;;;;;;;;;;-140.72;100.00;52204.19;5076988;28;19917;-65
2022/07/23 08:45:03;;;;;;;;;;;;;;;-140.72;100.00;52250.84;5046310;28;20074;-63
2022/07/23 08:47:29;;;;;;;;;;;;;;;-140.72;100.00;52252.88;5077361;28;19916;-64
2022/07/23 08:49:55;;;;;;;;;;;;;;;-140.72;100.00;52248.81;5076239;28;20066;-64
2022/07/23 08:52:21;;;;;;;;;;;;;;;-140.72;100.00;52202.16;5077750;28;19916;-64
2022/07/23 08:54:47;;;;;;;;;;;;;;;-140.72;100.00;52254.91;5077313;28;19916;-64
2022/07/23 08:57:12;;;;;;;;;;;;;;;-140.72;100.00;52216.34;5058291;28;19936;-65
2022/07/23 08:59:37;;;;;;;;;;;;;;;-140.72;100.00;52214.34;5069803;28;19932;-65
2022/07/23 09:02:02;;;;;;;;;;;;;;;-140.72;100.00;52194.03;5077217;28;19916;-65
2022/07/23 09:04:28;;;;;;;;;;;;;;;-140.72;100.00;52240.72;5077298;28;19920;-65
2022/07/23 09:06:53;;;;;;;;;;;;;;;-140.72;100.00;52179.84;5063451;28;20269;-64
2022/07/23 09:09:20;;;;;;;;;;;;;;;-140.72;100.00;52153.47;5045412;28;19925;-65
2022/07/23 09:12:01;;;;;;;;;;;;;;;-140.72;100.00;52165.63;5058457;28;19920;-65
2022/07/23 09:14:40;;;;;;;;;;;;;;;-140.72;100.00;52139.25;5061644;28;19924;-64
2022/07/23 09:17:12;;;;;;;;;;;;;;;-140.72;100.00;52141.28;5056735;28;19928;-64
2022/07/23 09:19:37;;;;;;;;;;;;;;;-140.72;100.00;52133.16;5057826;28;19924;-64
2022/07/23 09:22:19;;;;;;;;;;;;;;;-140.72;100.00;52127.09;5053245;28;19916;-64
2022/07/23 09:25:03;;;;;;;;;;;;;;;-140.72;100.00;52135.19;5067186;28;19973;-64
2022/07/23 09:27:49;;;;;;;;;;;;;;;-140.72;100.00;52129.13;5079659;28;19981;-64
2022/07/23 09:30:14;;;;;;;;;;;;;;;-140.72;100.00;52090.56;5070094;28;20011;-65
2022/07/23 09:32:40;;;;;;;;;;;;;;;-140.72;100.00;52054.03;5078910;28;19959;-63
2022/07/23 09:35:05;;;;;;;;;;;;;;;-140.72;100.00;52074.34;5058609;28;19921;-64
2022/07/23 09:37:31;;;;;;;;;;;;;;;-140.72;100.00;52015.50;5066946;28;19923;-64
2022/07/23 09:40:03;;;;;;;;;;;;;;;-140.72;100.00;52029.69;5079938;28;19924;-65
2022/07/23 09:42:28;;;;;;;;;;;;;;;-140.72;100.00;52033.75;5078131;28;20028;-64
2022/07/23 09:44:55;;;;;;;;;;;;;;;-140.72;100.00;52041.88;5076795;28;19989;-65
2022/07/23 09:47:21;;;;;;;;;;;;;;;-140.72;100.00;52052.00;5061755;28;19917;-64
2022/07/23 09:49:59;;;;;;;;;;;;;;;-140.72;100.00;51989.13;5065132;28;20359;-64
2022/07/23 09:52:33;;;;;;;;;;;;;;;-140.72;100.00;51972.88;5061857;28;19916;-65
2022/07/23 09:55:03;;;;;;;;;;;;;;;-140.72;100.00;51972.88;5068564;28;19920;-64
2022/07/23 09:57:28;;;;;;;;;;;;;;;-140.72;100.00;51997.22;5080107;28;19920;-64
2022/07/23 09:59:57;;;;;;;;;;;;;;;-140.72;100.00;51954.63;5079829;28;19917;-63
2022/07/23 10:02:22;;;;;;;;;;;;;;;-140.72;100.00;51914.03;5070633;28;19920;-64
2022/07/23 10:04:47;;;;;;;;;;;;;;;-140.72;100.00;51918.09;5056742;28;20228;-64
2022/07/23 10:07:13;;;;;;;;;;;;;;;-140.72;100.00;51877.53;5061724;28;19972;-65
2022/07/23 10:09:39;;;;;;;;;;;;;;;-140.72;100.00;51875.50;5065730;28;19917;-64
2022/07/23 10:14:38;;;;;;;;;;;;;;;-140.72;100.00;51824.78;5079317;28;19916;-64
2022/07/23 10:17:04;;;;;;;;;;;;;;;-140.72;100.00;51820.72;5079476;28;20057;-65
2022/07/23 10:19:29;;;;;;;;;;;;;;;-140.72;100.00;51910.00;5066941;28;19981;-65
2022/07/23 10:21:57;;;;;;;;;;;;;;;-140.72;100.00;51934.34;5080279;28;19921;-65
2022/07/23 10:24:25;;;;;;;;;;;;;;;-140.72;100.00;51883.63;5080333;28;19916;-64
2022/07/23 10:27:14;;;;;;;;;;;;;;;-140.72;100.00;51843.03;5079965;28;19963;-64
2022/07/23 10:29:47;;;;;;;;;;;;;;;-140.72;100.00;51863.31;5043355;28;19921;-65
2022/07/23 10:32:26;;;;;;;;;;;;;;;-140.72;100.00;51912.03;5060428;28;20038;-64
2022/07/23 10:35:06;;;;;;;;;;;;;;;-140.72;100.00;51916.06;5070561;28;20272;-63
2022/07/23 10:37:38;;;;;;;;;;;;;;;-140.72;100.00;51928.25;5079737;28;19923;-65
2022/07/23 10:40:22;;;;;;;;;;;;;;;-140.72;100.00;51966.81;5081076;28;19927;-64
2022/07/23 10:42:48;;;;;;;;;;;;;;;-140.72;100.00;51964.78;5062993;28;19962;-64
2022/07/23 10:45:28;;;;;;;;;;;;;;;-140.72;100.00;51893.75;5079668;28;19916;-64
2022/07/23 10:47:54;;;;;;;;;;;;;;;-140.72;100.00;51814.63;5080581;28;20344;-63
2022/07/23 10:50:24;;;;;;;;;;;;;;;-140.72;100.00;51887.66;5062656;28;19916;-64
2022/07/23 10:53:15;;;;;;;;;;;;;;;-140.72;100.00;51879.56;5080530;28;20000;-65
2022/07/23 10:55:49;;;;;;;;;;;;;;;-140.72;100.00;51774.06;5050273;28;20386;-65
2022/07/23 10:58:35;;;;;;;;;;;;;;;-140.72;100.00;51806.53;5049533;28;19917;-64
2022/07/23 11:01:00;;;;;;;;;;;;;;;-140.72;100.00;51796.38;5059376;28;19975;-65
2022/07/23 11:03:36;;;;;;;;;;;;;;;-140.72;100.00;51759.84;5042178;28;19917;-65
2022/07/23 11:06:01;;;;;;;;;;;;;;;-140.72;100.00;51713.19;5072319;28;19968;-65
2022/07/23 11:08:27;;;;;;;;;;;;;;;-140.72;100.00;51707.09;5067065;28;19916;-64
2022/07/23 11:10:54;;;;;;;;;;;;;;;-140.72;98.29;51664.50;5061149;28;20012;-64
2022/07/23 11:13:22;;;;;;;;;;;;;;;-140.72;92.18;51668.56;5060619;28;19956;-64
2022/07/23 11:16:04;;;;;;;;;;;;;;;-140.72;89.38;51644.22;5064979;28;20019;-65
2022/07/23 11:18:46;;;;;;;;;;;;;;;-140.72;88.67;51680.72;5066521;28;19916;-65
2022/07/23 11:21:20;;;;;;;;;;;;;;;-140.72;82.35;51642.19;5054649;28;19928;-65
2022/07/23 11:24:08;;;;;;;;;;;;;;;-140.72;85.90;51638.13;5058190;28;20421;-64
2022/07/23 11:26:37;;;;;;;;;;;;;;;-140.72;84.97;51646.25;5066951;28;19921;-63
2022/07/23 11:29:21;;;;;;;;;;;;;;;-140.72;83.86;51711.16;5063116;28;19916;-63
2022/07/23 11:31:53;;;;;;;;;;;;;;;-140.72;83.00;51810.56;5073512;28;20271;-65
2022/07/23 11:34:37;;;;;;;;;;;;;;;-140.72;88.21;51652.34;5064433;28;19974;-65
2022/07/23 11:37:03;;;;;;;;;;;;;;;-140.72;85.45;51609.72;5064992;28;20291;-65
2022/07/23 11:39:29;;;;;;;;;;;;;;;-140.72;82.44;51556.97;5074593;28;19921;-64
2022/07/23 11:41:55;;;;;;;;;;;;;;;-140.72;79.34;51559.00;5062860;28;20275;-65
2022/07/23 11:44:30;;;;;;;;;;;;;;;-140.72;72.53;51680.72;5052105;28;19974;-65
2022/07/23 11:46:56;;;;;;;;;;;;;;;-140.72;88.64;51741.59;5075032;28;19956;-65
2022/07/23 11:49:21;;;;;;;;;;;;;;;-140.72;99.10;51832.91;5062905;28;19924;-65
2022/07/23 11:51:46;;;;;;;;;;;;;;;-140.72;100.00;51970.84;5078698;28;19927;-65
2022/07/23 11:54:11;;;;;;;;;;;;;;;-140.72;100.00;52037.81;5079706;28;19939;-65
2022/07/23 11:56:37;;;;;;;;;;;;;;;-140.72;100.00;52045.94;5064790;28;20283;-64
2022/07/23 11:59:02;;;;;;;;;;;;;;;-140.72;100.00;52072.31;5066072;28;19917;-64
2022/07/23 12:01:27;;;;;;;;;;;;;;;-140.72;100.00;51989.13;5078435;28;19979;-64
2022/07/23 12:03:53;;;;;;;;;;;;;;;-140.72;100.00;51924.19;5069861;28;19923;-64
2022/07/23 12:06:18;;;;;;;;;;;;;;;-140.72;100.00;51938.41;5072608;28;20014;-65
2022/07/23 12:08:43;;;;;;;;;;;;;;;-140.72;100.00;51802.47;5070743;28;19952;-65
2022/07/23 12:11:11;;;;;;;;;;;;;;;-140.72;100.00;51711.16;5075269;28;19916;-64
2022/07/23 12:13:37;;;;;;;;;;;;;;;-140.72;100.00;51808.53;5077786;28;19955;-66
2022/07/23 12:16:04;;;;;;;;;;;;;;;-140.72;100.00;51822.75;5078281;28;19932;-66
2022/07/23 12:18:30;;;;;;;;;;;;;;;-140.72;100.00;51767.97;5059523;28;20347;-65